Time;durP1;ratioP1;P1;durP2;ratioP2;P2;SDS_P1;SDS_P2;PMS_P1;PMS_P2;Temp;Humidity;BMP_temperature;BMP_pressure;BME280_temperature;BME280_humidity;BME280_pressure;Samples;Min_cycle;Max_cycle;Signal;HPM_P1;HPM_P2
2023/12/14 00:00:30;;;;;;;20.40;15.30;;;12.00;99.90;;;;;;5089103;28;20678;-70
2023/12/14 00:02:56;;;;;;;17.17;14.37;;;11.90;99.90;;;;;;5090347;28;20463;-68
2023/12/14 00:05:22;;;;;;;12.53;11.33;;;12.00;99.90;;;;;;5089416;28;20436;-69
2023/12/14 00:07:47;;;;;;;10.13;9.13;;;12.00;99.90;;;;;;5091659;28;20407;-69
2023/12/14 00:10:13;;;;;;;8.50;7.80;;;12.00;99.90;;;;;;5102666;28;20186;-63
2023/12/14 00:12:39;;;;;;;7.87;7.17;;;12.10;99.90;;;;;;5107456;28;20265;-69
2023/12/14 00:15:06;;;;;;;8.10;7.40;;;12.20;99.90;;;;;;5090197;28;20568;-69
2023/12/14 00:17:32;;;;;;;7.60;6.90;;;12.30;99.90;;;;;;5107310;28;20681;-68
2023/12/14 00:19:57;;;;;;;7.30;6.63;;;12.20;99.90;;;;;;5112217;28;20427;-68
2023/12/14 00:22:24;;;;;;;7.03;6.43;;;12.10;99.90;;;;;;5113406;28;20219;-66
2023/12/14 00:24:50;;;;;;;6.80;6.30;;;12.10;99.90;;;;;;5115050;28;20624;-68
2023/12/14 00:27:15;;;;;;;7.17;6.67;;;12.20;99.90;;;;;;5107778;28;20482;-62
2023/12/14 00:29:41;;;;;;;7.60;7.00;;;12.20;99.90;;;;;;5094543;28;20412;-68
2023/12/14 00:32:07;;;;;;;7.10;6.60;;;12.20;99.90;;;;;;5110061;28;20231;-68
2023/12/14 00:34:33;;;;;;;6.77;6.27;;;12.20;99.90;;;;;;5094299;28;20393;-68
2023/12/14 00:36:58;;;;;;;6.07;5.63;;;12.20;99.90;;;;;;5116264;28;20564;-69
2023/12/14 00:39:24;;;;;;;6.07;5.77;;;12.20;99.90;;;;;;5108990;28;20184;-68
2023/12/14 00:41:50;;;;;;;5.60;5.20;;;12.20;99.90;;;;;;5113320;28;20573;-67
2023/12/14 00:44:15;;;;;;;5.03;4.73;;;12.20;99.90;;;;;;5112674;28;20258;-61
2023/12/14 00:46:41;;;;;;;5.33;5.03;;;12.10;99.90;;;;;;5115544;28;20174;-68
2023/12/14 00:49:07;;;;;;;5.43;5.13;;;12.10;99.90;;;;;;5111735;28;20184;-68
2023/12/14 00:51:33;;;;;;;5.80;5.40;;;12.10;99.90;;;;;;5111457;28;20433;-68
2023/12/14 00:53:59;;;;;;;6.57;6.07;;;12.10;99.90;;;;;;5094284;28;20458;-68
2023/12/14 00:56:25;;;;;;;8.47;7.77;;;12.10;99.90;;;;;;5112270;28;20183;-67
2023/12/14 00:58:50;;;;;;;7.83;7.07;;;12.10;99.90;;;;;;5112490;28;20259;-67
2023/12/14 01:01:16;;;;;;;9.50;8.70;;;12.10;99.90;;;;;;5114505;28;20217;-62
2023/12/14 01:03:42;;;;;;;9.60;8.53;;;12.10;99.90;;;;;;5115093;28;20179;-67
2023/12/14 01:06:08;;;;;;;10.27;9.27;;;12.10;99.90;;;;;;5108738;28;20896;-68
2023/12/14 01:08:33;;;;;;;8.80;8.00;;;12.00;99.90;;;;;;5093821;28;20187;-68
2023/12/14 01:10:59;;;;;;;10.07;9.20;;;12.00;99.90;;;;;;5115070;28;20180;-68
2023/12/14 01:13:25;;;;;;;8.57;7.87;;;12.00;99.90;;;;;;5103328;28;20179;-67
2023/12/14 01:15:51;;;;;;;8.33;7.63;;;12.10;99.90;;;;;;5112408;28;20219;-67
2023/12/14 01:18:17;;;;;;;8.70;7.90;;;12.10;99.90;;;;;;5114886;28;20174;-62
2023/12/14 01:20:43;;;;;;;9.13;8.23;;;12.10;99.90;;;;;;5110126;28;20175;-68
2023/12/14 01:23:11;;;;;;;7.47;6.87;;;12.20;99.90;;;;;;5094006;28;20952;-68
2023/12/14 01:25:37;;;;;;;8.13;7.43;;;12.20;99.90;;;;;;5113031;28;20493;-68
2023/12/14 01:28:03;;;;;;;7.37;6.77;;;12.20;99.90;;;;;;5105975;28;20533;-69
2023/12/14 01:30:29;;;;;;;7.83;7.23;;;12.20;99.90;;;;;;5111866;28;20638;-69
2023/12/14 01:32:55;;;;;;;7.10;6.70;;;12.20;99.90;;;;;;5114871;28;20412;-69
2023/12/14 01:35:21;;;;;;;6.63;6.20;;;12.20;99.90;;;;;;5111595;28;20437;-69
2023/12/14 01:37:47;;;;;;;6.37;5.87;;;12.10;99.90;;;;;;5112422;28;20222;-69
2023/12/14 01:40:13;;;;;;;6.67;5.90;;;12.10;99.90;;;;;;5114401;28;20168;-67
2023/12/14 01:42:39;;;;;;;5.80;5.40;;;12.10;99.90;;;;;;5110669;28;21061;-70
2023/12/14 01:45:06;;;;;;;4.80;4.50;;;12.10;99.90;;;;;;5111468;28;20413;-69
2023/12/14 01:47:31;;;;;;;4.50;4.30;;;12.00;99.90;;;;;;5112557;28;20932;-69
2023/12/14 01:49:57;;;;;;;4.80;4.60;;;12.00;99.90;;;;;;5100739;28;20458;-70
2023/12/14 01:52:23;;;;;;;4.63;4.37;;;11.80;99.90;;;;;;5094768;28;20229;-69
2023/12/14 01:54:49;;;;;;;4.40;4.10;;;11.90;99.90;;;;;;5114505;28;20166;-70
2023/12/14 01:57:14;;;;;;;4.60;4.30;;;11.80;99.90;;;;;;5111452;28;20178;-70
2023/12/14 01:59:40;;;;;;;4.50;4.20;;;11.80;99.90;;;;;;5111409;28;20175;-70
2023/12/14 02:02:06;;;;;;;5.00;4.60;;;11.80;99.90;;;;;;5114358;28;20211;-70
2023/12/14 02:04:32;;;;;;;5.13;4.30;;;11.80;99.90;;;;;;5096337;28;20173;-71
2023/12/14 02:06:58;;;;;;;4.87;4.50;;;11.80;99.90;;;;;;5111978;28;20406;-70
2023/12/14 02:09:25;;;;;;;5.30;4.80;;;11.80;99.90;;;;;;5111725;28;20763;-69
2023/12/14 02:11:50;;;;;;;5.47;5.00;;;11.80;99.90;;;;;;5108398;28;20209;-69
2023/12/14 02:14:16;;;;;;;4.77;4.50;;;11.80;99.90;;;;;;5113976;28;20920;-70
2023/12/14 02:16:42;;;;;;;4.73;4.30;;;11.70;99.90;;;;;;5094041;28;20433;-70
2023/12/14 02:19:08;;;;;;;5.70;5.20;;;11.70;99.90;;;;;;5101077;28;20183;-70
2023/12/14 02:21:34;;;;;;;4.87;4.53;;;11.70;99.90;;;;;;5111205;28;20201;-70
2023/12/14 02:23:59;;;;;;;5.10;4.80;;;11.70;99.90;;;;;;5109347;28;20549;-70
2023/12/14 02:26:25;;;;;;;6.07;5.63;;;11.70;99.90;;;;;;5088339;28;20624;-69
2023/12/14 02:28:51;;;;;;;6.80;6.30;;;11.60;99.90;;;;;;5110028;28;20643;-70
2023/12/14 02:31:19;;;;;;;9.00;8.10;;;11.50;99.90;;;;;;5113768;28;20186;-70
2023/12/14 02:33:44;;;;;;;9.00;8.10;;;11.50;99.90;;;;;;5110974;28;20185;-70
2023/12/14 02:36:10;;;;;;;11.17;9.93;;;11.50;99.90;;;;;;5111869;28;20764;-69
2023/12/14 02:38:36;;;;;;;11.20;10.10;;;11.60;99.90;;;;;;5111955;28;20222;-70
2023/12/14 02:41:02;;;;;;;11.03;9.40;;;11.60;99.90;;;;;;5111148;28;20616;-70
2023/12/14 02:43:28;;;;;;;10.67;9.10;;;11.60;99.90;;;;;;5091623;28;20263;-69
2023/12/14 02:45:55;;;;;;;11.67;10.50;;;11.60;99.90;;;;;;5113484;28;20491;-68
2023/12/14 02:48:20;;;;;;;10.23;9.23;;;11.60;99.90;;;;;;5110082;28;20588;-61
2023/12/14 02:50:46;;;;;;;9.17;8.27;;;11.60;99.90;;;;;;5082550;28;20468;-69
2023/12/14 02:53:12;;;;;;;8.67;7.93;;;11.60;99.90;;;;;;5113538;28;20171;-69
2023/12/14 02:55:38;;;;;;;9.40;8.47;;;11.60;99.90;;;;;;5109862;28;20659;-69
2023/12/14 02:58:04;;;;;;;8.50;7.70;;;11.60;99.90;;;;;;5110429;28;20445;-69
2023/12/14 03:00:29;;;;;;;8.53;7.70;;;11.60;99.90;;;;;;5108802;28;20245;-68
2023/12/14 03:02:55;;;;;;;8.33;7.27;;;11.60;99.90;;;;;;5092923;28;20660;-69
2023/12/14 03:05:21;;;;;;;7.70;7.10;;;11.60;99.90;;;;;;5105042;28;20437;-63
2023/12/14 03:07:47;;;;;;;6.70;6.10;;;11.60;99.90;;;;;;5110433;28;20181;-68
2023/12/14 03:10:12;;;;;;;7.67;7.00;;;11.50;99.90;;;;;;5103581;28;20180;-69
2023/12/14 03:12:38;;;;;;;8.30;6.50;;;11.50;99.90;;;;;;5103697;28;20190;-68
2023/12/14 03:15:04;;;;;;;6.80;6.20;;;11.60;99.90;;;;;;5109663;28;20220;-70
2023/12/14 03:17:30;;;;;;;7.87;7.07;;;11.60;99.90;;;;;;5112204;28;20526;-69
2023/12/14 03:19:56;;;;;;;7.63;6.90;;;11.60;99.90;;;;;;5105573;28;20431;-69
2023/12/14 03:22:22;;;;;;;7.53;6.83;;;11.50;99.90;;;;;;5099483;28;20207;-64
2023/12/14 03:24:48;;;;;;;7.13;6.53;;;11.50;99.90;;;;;;5107431;28;20417;-69
2023/12/14 03:27:14;;;;;;;7.17;6.67;;;11.50;99.90;;;;;;5112847;28;20627;-69
2023/12/14 03:29:40;;;;;;;6.97;6.37;;;11.50;99.90;;;;;;5109596;28;20268;-69
2023/12/14 03:32:06;;;;;;;7.50;6.90;;;11.40;99.90;;;;;;5109627;28;20568;-69
2023/12/14 03:34:31;;;;;;;7.43;6.70;;;11.40;99.90;;;;;;5111973;28;20180;-69
2023/12/14 03:36:57;;;;;;;7.80;7.00;;;11.30;99.90;;;;;;5109593;28;20469;-69
2023/12/14 03:39:23;;;;;;;6.57;6.03;;;11.30;99.90;;;;;;5110522;28;20177;-69
2023/12/14 03:41:48;;;;;;;7.60;6.93;;;11.30;99.90;;;;;;5110433;28;20203;-68
2023/12/14 03:44:14;;;;;;;8.80;7.90;;;11.30;99.90;;;;;;5112125;28;20535;-69
2023/12/14 03:46:40;;;;;;;8.57;7.77;;;11.30;99.90;;;;;;5109202;28;20190;-69
2023/12/14 03:49:05;;;;;;;8.90;8.00;;;11.30;99.90;;;;;;5102449;28;20261;-69
2023/12/14 03:51:31;;;;;;;9.00;8.10;;;11.30;99.90;;;;;;5108326;28;20183;-69
2023/12/14 03:53:57;;;;;;;9.10;8.30;;;11.30;99.90;;;;;;5113979;28;20257;-69
2023/12/14 03:56:23;;;;;;;9.77;8.77;;;11.30;99.90;;;;;;5114295;28;20221;-67
2023/12/14 03:58:49;;;;;;;11.43;10.13;;;11.20;99.90;;;;;;5115952;28;20226;-69
2023/12/14 04:01:19;;;;;;;11.50;8.57;;;11.30;99.90;;;;;;5113939;28;20961;-69
2023/12/14 04:03:45;;;;;;;13.03;10.40;;;11.30;99.90;;;;;;5113652;28;20172;-69
2023/12/14 04:06:12;;;;;;;15.03;11.53;;;11.30;99.90;;;;;;5116518;28;20406;-68
2023/12/14 04:08:38;;;;;;;12.40;10.90;;;11.30;99.90;;;;;;5112629;28;20422;-69
2023/12/14 04:11:05;;;;;;;17.30;12.33;;;11.30;99.90;;;;;;5114026;28;20421;-69
2023/12/14 04:13:31;;;;;;;14.03;12.10;;;11.30;99.90;;;;;;5115444;28;20956;-68
2023/12/14 04:15:57;;;;;;;15.33;12.03;;;11.30;99.90;;;;;;5112007;28;20461;-68
2023/12/14 04:18:23;;;;;;;16.37;12.50;;;11.40;99.90;;;;;;5100591;28;20429;-69
2023/12/14 04:20:49;;;;;;;13.77;11.30;;;11.30;99.90;;;;;;5111032;28;20482;-68
2023/12/14 04:23:15;;;;;;;14.77;11.77;;;11.30;99.90;;;;;;5116002;28;20459;-69
2023/12/14 04:25:40;;;;;;;17.40;12.07;;;11.30;99.90;;;;;;5112584;28;20471;-68
2023/12/14 04:28:06;;;;;;;14.43;11.90;;;11.30;99.90;;;;;;5113112;28;20639;-69
2023/12/14 04:30:32;;;;;;;15.67;11.67;;;11.30;99.90;;;;;;5115116;28;20177;-68
2023/12/14 04:32:58;;;;;;;16.67;11.77;;;11.30;99.90;;;;;;5113412;28;20258;-69
2023/12/14 04:35:23;;;;;;;16.10;10.57;;;11.20;99.90;;;;;;5116441;28;20413;-69
2023/12/14 04:37:49;;;;;;;13.27;9.83;;;11.30;99.90;;;;;;5115257;28;20171;-69
2023/12/14 04:40:15;;;;;;;11.67;9.10;;;11.30;99.90;;;;;;5077220;28;20218;-68
2023/12/14 04:42:41;;;;;;;10.70;9.40;;;11.20;99.90;;;;;;5074019;28;20543;-69
2023/12/14 04:45:09;;;;;;;11.03;8.23;;;11.20;99.90;;;;;;5084598;28;20425;-68
2023/12/14 04:47:35;;;;;;;9.87;8.57;;;11.20;99.90;;;;;;5104496;28;20188;-68
2023/12/14 04:50:02;;;;;;;9.30;7.20;;;11.20;99.90;;;;;;5115859;28;20819;-69
2023/12/14 04:52:28;;;;;;;8.80;8.00;;;11.10;99.90;;;;;;5115592;28;20406;-62
2023/12/14 04:54:54;;;;;;;7.30;6.60;;;11.10;99.90;;;;;;5115228;28;20457;-68
2023/12/14 04:57:20;;;;;;;8.97;8.17;;;11.20;99.90;;;;;;5115649;28;20481;-69
2023/12/14 04:59:45;;;;;;;8.93;8.03;;;11.20;99.90;;;;;;5114767;28;20175;-69
2023/12/14 05:02:11;;;;;;;8.63;7.73;;;11.20;99.90;;;;;;5079883;28;20496;-68
2023/12/14 05:04:37;;;;;;;6.60;5.73;;;11.20;99.90;;;;;;5073080;28;20179;-68
2023/12/14 05:07:03;;;;;;;7.30;6.40;;;11.20;99.90;;;;;;5082039;28;20180;-68
2023/12/14 05:09:29;;;;;;;7.47;6.60;;;11.20;99.90;;;;;;5111502;27;20537;-62
2023/12/14 05:11:54;;;;;;;8.63;7.60;;;11.20;99.90;;;;;;5091293;28;20423;-69
2023/12/14 05:14:20;;;;;;;8.10;7.30;;;11.20;99.90;;;;;;5095033;28;20300;-68
2023/12/14 05:16:46;;;;;;;6.97;6.37;;;11.10;99.90;;;;;;5094206;28;20249;-68
2023/12/14 05:19:14;;;;;;;7.30;5.77;;;11.10;99.90;;;;;;5090642;28;20169;-69
2023/12/14 05:21:40;;;;;;;7.63;6.27;;;11.30;99.90;;;;;;5077940;28;20661;-68
2023/12/14 05:24:06;;;;;;;9.73;7.87;;;11.10;99.90;;;;;;5093375;28;20429;-68
2023/12/14 05:26:32;;;;;;;6.90;6.30;;;11.10;99.90;;;;;;5090027;28;20627;-68
2023/12/14 05:28:58;;;;;;;6.70;5.97;;;11.10;99.90;;;;;;5086461;28;20816;-68
2023/12/14 05:31:24;;;;;;;6.60;5.87;;;11.00;99.90;;;;;;5074386;28;20423;-66
2023/12/14 05:33:49;;;;;;;8.50;6.63;;;11.00;99.90;;;;;;5101152;28;20181;-68
2023/12/14 05:36:15;;;;;;;8.03;6.50;;;10.90;99.90;;;;;;5092713;28;20636;-68
2023/12/14 05:38:41;;;;;;;7.93;6.67;;;10.90;99.90;;;;;;5081897;28;20169;-64
2023/12/14 05:41:07;;;;;;;8.23;6.50;;;10.80;99.90;;;;;;5074320;28;20173;-68
2023/12/14 05:43:33;;;;;;;6.90;5.37;;;10.70;99.90;;;;;;5074995;28;20905;-68
2023/12/14 05:45:59;;;;;;;7.33;5.60;;;10.70;99.90;;;;;;5090808;28;20433;-65
2023/12/14 05:48:29;;;;;;;142.67;93.70;;;10.50;99.90;;;;;;5090139;28;20422;-64
2023/12/14 05:50:56;;;;;;;70.53;47.53;;;10.50;99.90;;;;;;5073309;28;20422;-66
2023/12/14 05:53:23;;;;;;;7.50;6.10;;;10.50;99.90;;;;;;5074083;28;20447;-66
2023/12/14 05:55:49;;;;;;;5.37;4.83;;;10.40;99.90;;;;;;5089373;28;20426;-66
2023/12/14 05:58:14;;;;;;;5.93;4.60;;;10.40;99.90;;;;;;5094471;28;20876;-66
2023/12/14 06:00:40;;;;;;;10.53;5.60;;;10.30;99.90;;;;;;5088497;28;20180;-66
2023/12/14 06:03:06;;;;;;;6.40;5.60;;;10.30;99.90;;;;;;5104633;28;20230;-66
2023/12/14 06:05:32;;;;;;;7.20;5.50;;;10.20;99.90;;;;;;5114531;28;20172;-61
2023/12/14 06:07:57;;;;;;;5.93;4.30;;;10.10;99.90;;;;;;5094689;28;20188;-66
2023/12/14 06:10:23;;;;;;;7.20;5.53;;;9.80;99.90;;;;;;5073884;28;20901;-68
2023/12/14 06:12:49;;;;;;;8.30;5.30;;;9.80;99.90;;;;;;5073349;28;20246;-67
2023/12/14 06:15:15;;;;;;;5.03;4.63;;;9.80;99.90;;;;;;5081769;28;20250;-68
2023/12/14 06:17:42;;;;;;;6.47;5.73;;;9.80;99.90;;;;;;5094720;28;20183;-67
2023/12/14 06:20:08;;;;;;;6.20;5.40;;;9.70;99.90;;;;;;5079721;28;20514;-66
2023/12/14 06:22:37;;;;;;;9.50;5.77;;;9.80;99.90;;;;;;5093013;28;20531;-67
2023/12/14 06:25:03;;;;;;;11.00;6.47;;;9.80;99.90;;;;;;5093816;28;20507;-69
2023/12/14 06:27:29;;;;;;;6.70;6.00;;;9.80;99.90;;;;;;5086166;28;20421;-68
2023/12/14 06:29:55;;;;;;;9.17;6.70;;;9.80;99.90;;;;;;5088590;28;20395;-67
2023/12/14 06:32:21;;;;;;;9.77;8.00;;;9.80;99.90;;;;;;5090889;28;20873;-72
2023/12/14 06:34:47;;;;;;;10.17;7.40;;;9.80;99.90;;;;;;5087974;28;20438;-73
2023/12/14 06:37:13;;;;;;;11.17;9.30;;;9.80;99.90;;;;;;5090754;28;20426;-73
2023/12/14 06:39:41;;;;;;;9.63;7.90;;;9.70;99.90;;;;;;5105520;28;20476;-63
2023/12/14 06:42:07;;;;;;;12.27;8.43;;;9.70;99.90;;;;;;5073444;28;20252;-69
2023/12/14 06:44:34;;;;;;;10.70;8.30;;;9.70;99.90;;;;;;5076841;28;20434;-74
2023/12/14 06:47:00;;;;;;;8.63;7.57;;;9.70;99.90;;;;;;5079713;28;20441;-74
2023/12/14 06:49:25;;;;;;;9.10;7.77;;;9.60;99.90;;;;;;5088538;28;20427;-74
2023/12/14 06:51:52;;;;;;;8.03;7.23;;;9.60;99.90;;;;;;5078713;28;20195;-74
2023/12/14 06:54:17;;;;;;;10.77;9.87;;;9.50;99.90;;;;;;5111982;27;20505;-74
2023/12/14 06:56:43;;;;;;;8.30;7.30;;;9.50;99.90;;;;;;5083890;28;20497;-76
2023/12/14 06:59:09;;;;;;;8.77;7.90;;;9.50;99.90;;;;;;5079274;28;20291;-76
2023/12/14 07:01:35;;;;;;;8.10;7.20;;;9.50;99.90;;;;;;5089041;28;20537;-60
2023/12/14 07:04:03;;;;;;;8.90;8.00;;;9.50;99.90;;;;;;5081494;28;20438;-74
2023/12/14 07:06:29;;;;;;;9.90;8.90;;;9.50;99.90;;;;;;5079489;28;20415;-73
2023/12/14 07:08:55;;;;;;;10.83;8.33;;;9.50;99.90;;;;;;5095256;28;20426;-73
2023/12/14 07:11:21;;;;;;;10.67;7.73;;;9.40;99.90;;;;;;5077927;28;20183;-73
2023/12/14 07:13:46;;;;;;;11.67;8.80;;;9.40;99.90;;;;;;5082284;28;20255;-74
2023/12/14 07:16:12;;;;;;;11.77;8.30;;;9.50;99.90;;;;;;5091373;28;20949;-74
2023/12/14 07:18:40;;;;;;;12.57;8.87;;;9.50;99.90;;;;;;5097482;28;20244;-72
2023/12/14 07:21:06;;;;;;;14.93;10.90;;;9.50;99.90;;;;;;5093775;28;20514;-74
2023/12/14 07:23:33;;;;;;;15.03;9.00;;;9.50;99.90;;;;;;5103789;28;20437;-74
2023/12/14 07:25:58;;;;;;;18.20;10.60;;;9.50;99.90;;;;;;5107682;28;20418;-73
2023/12/14 07:28:24;;;;;;;14.50;10.77;;;9.50;99.90;;;;;;5088877;28;20517;-73
2023/12/14 07:30:50;;;;;;;13.90;10.87;;;9.50;99.90;;;;;;5091973;28;20621;-74
2023/12/14 07:33:16;;;;;;;14.77;11.27;;;9.50;99.90;;;;;;5093056;28;20529;-74
2023/12/14 07:35:43;;;;;;;21.80;14.43;;;9.60;99.90;;;;;;5092283;28;20280;-69
2023/12/14 07:38:10;;;;;;;26.07;14.93;;;9.60;99.90;;;;;;5092780;28;20423;-68
2023/12/14 07:40:35;;;;;;;24.40;15.50;;;9.60;99.90;;;;;;5104889;28;20503;-69
2023/12/14 07:43:01;;;;;;;28.33;16.90;;;9.50;99.90;;;;;;5091901;28;20547;-68
2023/12/14 07:45:27;;;;;;;30.20;17.40;;;9.50;99.90;;;;;;5099002;28;20186;-68
2023/12/14 07:47:53;;;;;;;30.23;17.97;;;9.60;99.90;;;;;;5112375;28;20183;-69
2023/12/14 07:50:19;;;;;;;32.27;19.13;;;9.60;99.90;;;;;;5104497;28;20888;-69
2023/12/14 07:52:45;;;;;;;29.30;18.20;;;9.60;99.90;;;;;;5091382;28;20416;-68
2023/12/14 07:55:13;;;;;;;34.43;20.07;;;9.60;99.90;;;;;;5091373;28;20182;-68
2023/12/14 07:57:39;;;;;;;30.47;17.97;;;9.60;99.90;;;;;;5090931;28;20179;-62
2023/12/14 08:00:06;;;;;;;33.67;19.70;;;9.60;99.90;;;;;;5091926;28;20430;-68
2023/12/14 08:02:33;;;;;;;32.63;20.83;;;9.60;99.90;;;;;;5093326;28;20214;-68
2023/12/14 08:04:58;;;;;;;29.73;18.57;;;9.60;99.90;;;;;;5090712;28;20845;-70
2023/12/14 08:07:28;;;;;;;33.77;20.47;;;9.60;99.90;;;;;;5091388;28;20176;-72
2023/12/14 08:09:58;;;;;;;29.50;18.90;;;9.60;99.90;;;;;;5091860;28;20201;-72
2023/12/14 08:12:24;;;;;;;31.50;18.13;;;9.60;99.90;;;;;;5092601;28;20420;-73
2023/12/14 08:14:50;;;;;;;35.40;19.83;;;9.60;99.90;;;;;;5095600;28;20473;-70
2023/12/14 08:17:16;;;;;;;35.33;20.50;;;9.40;99.90;;;;;;5098653;28;20441;-71
2023/12/14 08:19:42;;;;;;;36.50;20.43;;;9.40;99.90;;;;;;5091661;28;20415;-71
2023/12/14 08:22:11;;;;;;;34.20;19.27;;;9.40;99.90;;;;;;5092528;28;20530;-70
2023/12/14 08:24:40;;;;;;;33.77;18.50;;;9.30;99.90;;;;;;5091797;28;20414;-71
2023/12/14 08:27:06;;;;;;;22.80;15.57;;;9.20;99.90;;;;;;5098948;28;20452;-70
2023/12/14 08:29:31;;;;;;;25.17;14.67;;;9.20;99.90;;;;;;5099393;28;20424;-70
2023/12/14 08:31:59;;;;;;;23.77;14.20;;;9.20;99.90;;;;;;5090536;28;20915;-71
2023/12/14 08:34:25;;;;;;;22.40;13.37;;;9.10;99.90;;;;;;5091473;28;20226;-72
2023/12/14 08:36:51;;;;;;;16.57;12.50;;;9.10;99.90;;;;;;5091678;28;20441;-71
2023/12/14 08:39:17;;;;;;;18.30;11.30;;;9.20;99.90;;;;;;5094646;28;20445;-72
2023/12/14 08:41:44;;;;;;;14.20;11.20;;;9.10;99.90;;;;;;5095304;28;20536;-72
2023/12/14 08:44:10;;;;;;;18.63;11.57;;;9.20;99.90;;;;;;5095521;28;20448;-71
2023/12/14 08:46:44;;;;;;;13.83;10.50;;;9.10;99.90;;;;;;5097583;28;20438;-71
2023/12/14 08:49:11;;;;;;;14.40;10.60;;;9.10;99.90;;;;;;5095783;28;20161;-65
2023/12/14 08:51:38;;;;;;;17.30;12.13;;;9.10;99.90;;;;;;5094327;28;20407;-70
2023/12/14 08:54:04;;;;;;;16.70;11.70;;;9.10;99.90;;;;;;5086017;28;20419;-70
2023/12/14 08:56:30;;;;;;;18.70;13.53;;;9.00;99.90;;;;;;5081295;28;20407;-71
2023/12/14 08:58:57;;;;;;;19.67;14.20;;;9.00;99.90;;;;;;5094832;28;20454;-71
2023/12/14 09:01:23;;;;;;;16.03;11.30;;;9.10;99.90;;;;;;5103481;28;20781;-71
2023/12/14 09:03:49;;;;;;;15.83;13.10;;;9.10;99.90;;;;;;5115358;28;20404;-68
2023/12/14 09:06:17;;;;;;;18.30;13.87;;;9.20;99.90;;;;;;5115849;28;20413;-66
2023/12/14 09:08:44;;;;;;;17.50;14.03;;;9.10;99.90;;;;;;5094620;28;20425;-62
2023/12/14 09:11:10;;;;;;;16.53;11.70;;;9.10;99.90;;;;;;5095427;28;20403;-68
2023/12/14 09:13:36;;;;;;;16.40;12.47;;;9.10;99.90;;;;;;5095179;28;20422;-69
2023/12/14 09:16:02;;;;;;;187.13;94.73;;;9.10;99.90;;;;;;5092809;28;20799;-68
2023/12/14 09:18:27;;;;;;;66.43;40.67;;;9.10;99.90;;;;;;5095335;28;20175;-69
2023/12/14 09:20:53;;;;;;;23.83;16.33;;;9.10;99.90;;;;;;5094408;28;20172;-68
2023/12/14 09:23:19;;;;;;;24.00;15.20;;;9.00;99.90;;;;;;5096298;28;20216;-68
2023/12/14 09:25:45;;;;;;;22.20;15.10;;;9.10;99.90;;;;;;5101414;28;20221;-66
2023/12/14 09:28:11;;;;;;;22.83;15.17;;;9.10;99.90;;;;;;5094792;28;20175;-67
2023/12/14 09:30:37;;;;;;;21.30;14.20;;;9.10;99.90;;;;;;5108515;28;20440;-70
2023/12/14 09:33:03;;;;;;;20.93;14.07;;;9.10;99.90;;;;;;5110570;28;20180;-66
2023/12/14 09:35:29;;;;;;;21.13;15.30;;;9.00;99.90;;;;;;5115352;28;20177;-67
2023/12/14 09:37:56;;;;;;;21.87;15.87;;;9.00;99.90;;;;;;5114622;28;20407;-66
2023/12/14 09:40:22;;;;;;;24.03;15.17;;;8.90;99.90;;;;;;5098425;28;20166;-67
2023/12/14 09:42:48;;;;;;;19.93;16.13;;;8.90;99.90;;;;;;5093328;28;20473;-66
2023/12/14 09:45:17;;;;;;;141.70;89.60;;;9.00;99.90;;;;;;5094656;28;20783;-67
2023/12/14 09:47:44;;;;;;;139.80;88.30;;;9.00;99.90;;;;;;5095713;28;20427;-66
2023/12/14 09:50:10;;;;;;;27.70;18.80;;;8.90;99.90;;;;;;5093574;28;20408;-69
2023/12/14 09:52:36;;;;;;;24.60;14.87;;;9.00;99.90;;;;;;5096847;28;20516;-68
2023/12/14 09:55:03;;;;;;;20.23;13.53;;;9.00;99.90;;;;;;5106703;28;20189;-72
2023/12/14 09:57:29;;;;;;;19.73;14.50;;;9.00;99.90;;;;;;5099205;28;20687;-71
2023/12/14 09:59:56;;;;;;;19.83;13.90;;;9.00;99.90;;;;;;5093353;28;20515;-72
2023/12/14 10:02:27;;;;;;;23.90;16.43;;;9.10;99.90;;;;;;5094090;28;20484;-72
2023/12/14 10:04:53;;;;;;;25.43;16.57;;;9.10;99.90;;;;;;5093563;28;20452;-72
2023/12/14 10:07:21;;;;;;;24.97;16.13;;;9.10;99.90;;;;;;5094167;28;20437;-72
2023/12/14 10:09:47;;;;;;;26.03;15.90;;;9.10;99.90;;;;;;5093609;28;20403;-69
2023/12/14 10:12:13;;;;;;;22.60;16.00;;;9.10;99.90;;;;;;5099621;28;20445;-72
2023/12/14 10:14:39;;;;;;;22.80;16.07;;;9.10;99.90;;;;;;5107673;28;20228;-73
2023/12/14 10:17:33;;;;;;;23.80;15.57;;;9.20;99.90;;;;;;5113851;28;20182;-72
2023/12/14 10:20:03;;;;;;;22.20;14.23;;;9.20;99.90;;;;;;5100019;28;20192;-72
2023/12/14 10:22:32;;;;;;;21.57;14.00;;;9.20;99.90;;;;;;5114324;28;20451;-73
2023/12/14 10:24:58;;;;;;;21.10;15.17;;;9.20;99.90;;;;;;5113731;28;20486;-72
2023/12/14 10:27:24;;;;;;;21.97;15.50;;;9.20;99.90;;;;;;5114363;28;20723;-72
2023/12/14 10:29:50;;;;;;;18.83;14.13;;;9.20;99.90;;;;;;5113634;28;20410;-72
2023/12/14 10:32:18;;;;;;;16.80;13.27;;;9.20;99.90;;;;;;5114245;28;20197;-72
2023/12/14 10:34:44;;;;;;;16.70;12.27;;;9.20;99.90;;;;;;5114302;28;20405;-73
2023/12/14 10:37:12;;;;;;;16.60;12.90;;;9.30;99.90;;;;;;5113437;28;20402;-73
2023/12/14 10:39:42;;;;;;;17.57;13.20;;;9.30;99.90;;;;;;5114075;28;20168;-73
2023/12/14 10:42:09;;;;;;;16.93;12.83;;;9.30;99.90;;;;;;5113288;28;20479;-72
2023/12/14 10:44:37;;;;;;;18.30;12.70;;;9.30;99.90;;;;;;5107714;28;20478;-73
2023/12/14 10:47:06;;;;;;;15.80;11.60;;;9.30;99.90;;;;;;5103125;28;20423;-73
2023/12/14 10:49:32;;;;;;;16.33;11.20;;;9.30;99.90;;;;;;5113905;28;20489;-73
2023/12/14 10:51:59;;;;;;;15.77;12.43;;;9.30;99.90;;;;;;5113251;28;20410;-72
2023/12/14 10:54:26;;;;;;;15.70;11.73;;;9.30;99.90;;;;;;5113899;28;20389;-72
2023/12/14 10:56:56;;;;;;;14.80;11.43;;;9.30;99.90;;;;;;5113118;28;20407;-71
2023/12/14 10:59:26;;;;;;;16.90;12.47;;;9.30;99.90;;;;;;5113699;28;20396;-73
2023/12/14 11:01:53;;;;;;;15.53;11.00;;;9.40;99.90;;;;;;5112946;28;20821;-64
2023/12/14 11:04:21;;;;;;;15.00;11.20;;;9.30;99.90;;;;;;5113293;28;20985;-73
2023/12/14 11:06:52;;;;;;;16.20;11.77;;;9.30;99.90;;;;;;5111963;28;20407;-73
2023/12/14 11:09:18;;;;;;;15.63;11.80;;;9.30;99.90;;;;;;5113597;28;20435;-72
2023/12/14 11:11:56;;;;;;;17.27;13.00;;;9.40;99.90;;;;;;5113640;28;20416;-72
2023/12/14 11:14:22;;;;;;;17.10;12.13;;;9.40;99.90;;;;;;5109290;28;21036;-73
2023/12/14 11:16:48;;;;;;;15.47;11.80;;;9.40;99.90;;;;;;5111363;28;20493;-73
2023/12/14 11:19:24;;;;;;;16.77;11.23;;;9.40;99.90;;;;;;5104744;28;20409;-72
2023/12/14 11:22:05;;;;;;;13.70;10.73;;;9.30;99.90;;;;;;5106346;28;20495;-70
2023/12/14 11:24:31;;;;;;;13.43;10.40;;;9.30;99.90;;;;;;5113312;28;20440;-72
2023/12/14 11:26:57;;;;;;;13.77;11.00;;;9.30;99.90;;;;;;5109882;28;20459;-72
2023/12/14 11:29:23;;;;;;;12.13;8.70;;;9.30;99.90;;;;;;5113256;28;20221;-72
2023/12/14 11:31:48;;;;;;;14.07;12.60;;;9.30;99.90;;;;;;5113225;28;20278;-72
2023/12/14 11:34:17;;;;;;;13.73;9.90;;;9.30;99.90;;;;;;5112582;28;20174;-72
2023/12/14 11:36:43;;;;;;;13.77;11.40;;;9.30;99.90;;;;;;5112939;28;20173;-72
2023/12/14 11:39:12;;;;;;;12.83;10.10;;;9.40;99.90;;;;;;5112214;28;20766;-72
2023/12/14 11:41:40;;;;;;;16.60;11.43;;;9.40;99.90;;;;;;5112990;28;20478;-65
2023/12/14 11:44:06;;;;;;;13.13;11.53;;;9.40;99.90;;;;;;5112305;28;20805;-64
2023/12/14 11:46:32;;;;;;;14.43;10.53;;;9.90;99.90;;;;;;5113027;28;20408;-64
2023/12/14 11:48:58;;;;;;;12.80;9.50;;;10.40;99.90;;;;;;5108908;28;20399;-61
2023/12/14 11:51:29;;;;;;;11.23;9.57;;;11.00;99.90;;;;;;5084878;28;20423;-62
2023/12/14 11:53:55;;;;;;;11.63;9.63;;;11.50;99.90;;;;;;5091575;28;20937;-60
2023/12/14 11:56:23;;;;;;;10.60;8.20;;;12.00;99.90;;;;;;5109216;28;20427;-64
2023/12/14 11:58:49;;;;;;;11.50;9.77;;;12.40;99.90;;;;;;5109540;28;20180;-63
2023/12/14 12:01:21;;;;;;;12.80;11.20;;;12.80;99.90;;;;;;5107073;28;20425;-64
2023/12/14 12:03:47;;;;;;;9.57;8.57;;;13.10;99.90;;;;;;5072360;28;20742;-64
2023/12/14 12:06:30;;;;;;;12.20;8.67;;;13.40;99.90;;;;;;5071742;28;20890;-64
2023/12/14 12:08:56;;;;;;;10.40;9.40;;;13.70;99.90;;;;;;5087626;28;20424;-63
2023/12/14 12:11:25;;;;;;;14.00;11.03;;;13.90;99.90;;;;;;5092261;28;20812;-69
2023/12/14 12:13:55;;;;;;;15.00;11.63;;;14.20;99.90;;;;;;5095424;28;20426;-62
2023/12/14 12:16:21;;;;;;;11.03;9.93;;;14.70;99.90;;;;;;5096791;28;20878;-63
2023/12/14 12:18:46;;;;;;;10.53;8.90;;;14.80;99.90;;;;;;5129195;27;20497;-63
2023/12/14 12:21:12;;;;;;;10.67;9.07;;;14.80;99.90;;;;;;5077406;28;20868;-62
2023/12/14 12:23:39;;;;;;;9.87;8.83;;;14.90;99.90;;;;;;5096357;28;20182;-63
2023/12/14 12:26:05;;;;;;;10.40;9.27;;;15.00;99.90;;;;;;5095630;28;20407;-62
2023/12/14 12:28:31;;;;;;;9.20;8.27;;;15.00;99.90;;;;;;5096160;28;20934;-62
2023/12/14 12:30:59;;;;;;;11.30;9.30;;;15.00;99.90;;;;;;5095390;28;20411;-61
2023/12/14 12:33:25;;;;;;;8.43;7.50;;;15.00;99.90;;;;;;5100720;28;20917;-60
2023/12/14 12:35:52;;;;;;;10.50;9.33;;;15.10;99.90;;;;;;5115299;28;20418;-62